sensor_id;sensor_type;location;lat;lon;timestamp;P1;durP1;ratioP1;P2;durP2;ratioP2
62179;SDS011;48172;53.374;10.722;2022-11-20T00:01:04;1.83;;;1.55;;
62179;SDS011;48172;53.374;10.722;2022-11-20T00:03:32;2.13;;;1.63;;
62179;SDS011;48172;53.374;10.722;2022-11-20T00:06:02;2.20;;;1.73;;
62179;SDS011;48172;53.374;10.722;2022-11-20T00:08:29;2.30;;;1.90;;
62179;SDS011;48172;53.374;10.722;2022-11-20T00:10:56;2.47;;;1.95;;
62179;SDS011;48172;53.374;10.722;2022-11-20T00:13:26;2.45;;;1.75;;
62179;SDS011;48172;53.374;10.722;2022-11-20T00:15:57;2.03;;;1.70;;
62179;SDS011;48172;53.374;10.722;2022-11-20T00:18:24;2.13;;;1.60;;
62179;SDS011;48172;53.374;10.722;2022-11-20T00:20:51;1.73;;;1.60;;
62179;SDS011;48172;53.374;10.722;2022-11-20T00:23:18;2.00;;;1.70;;
62179;SDS011;48172;53.374;10.722;2022-11-20T00:25:45;1.95;;;1.75;;
62179;SDS011;48172;53.374;10.722;2022-11-20T00:28:12;2.03;;;1.83;;
62179;SDS011;48172;53.374;10.722;2022-11-20T00:30:38;2.35;;;1.98;;
62179;SDS011;48172;53.374;10.722;2022-11-20T00:33:05;1.88;;;1.73;;
62179;SDS011;48172;53.374;10.722;2022-11-20T00:35:31;1.77;;;1.67;;
62179;SDS011;48172;53.374;10.722;2022-11-20T00:37:58;2.28;;;1.70;;
62179;SDS011;48172;53.374;10.722;2022-11-20T00:40:24;2.13;;;1.70;;
62179;SDS011;48172;53.374;10.722;2022-11-20T00:42:51;2.35;;;1.70;;
62179;SDS011;48172;53.374;10.722;2022-11-20T00:45:17;2.72;;;1.83;;
62179;SDS011;48172;53.374;10.722;2022-11-20T00:47:44;2.45;;;1.77;;
62179;SDS011;48172;53.374;10.722;2022-11-20T00:50:11;1.40;;;1.30;;
62179;SDS011;48172;53.374;10.722;2022-11-20T00:52:37;1.90;;;1.60;;
62179;SDS011;48172;53.374;10.722;2022-11-20T00:55:04;1.83;;;1.50;;
62179;SDS011;48172;53.374;10.722;2022-11-20T00:57:31;2.35;;;1.73;;
62179;SDS011;48172;53.374;10.722;2022-11-20T00:59:57;1.60;;;1.50;;
62179;SDS011;48172;53.374;10.722;2022-11-20T01:02:24;1.85;;;1.67;;
62179;SDS011;48172;53.374;10.722;2022-11-20T01:04:50;1.75;;;1.63;;
62179;SDS011;48172;53.374;10.722;2022-11-20T01:07:17;1.73;;;1.52;;
62179;SDS011;48172;53.374;10.722;2022-11-20T01:09:43;2.42;;;2.00;;
62179;SDS011;48172;53.374;10.722;2022-11-20T01:12:10;2.05;;;1.58;;
62179;SDS011;48172;53.374;10.722;2022-11-20T01:14:37;2.00;;;1.80;;
62179;SDS011;48172;53.374;10.722;2022-11-20T01:17:03;1.98;;;1.63;;
62179;SDS011;48172;53.374;10.722;2022-11-20T01:19:30;1.58;;;1.48;;
62179;SDS011;48172;53.374;10.722;2022-11-20T01:21:57;1.45;;;1.35;;
62179;SDS011;48172;53.374;10.722;2022-11-20T01:24:23;2.67;;;1.70;;
62179;SDS011;48172;53.374;10.722;2022-11-20T01:26:51;1.90;;;1.63;;
62179;SDS011;48172;53.374;10.722;2022-11-20T01:29:22;2.15;;;1.77;;
62179;SDS011;48172;53.374;10.722;2022-11-20T01:31:50;1.77;;;1.63;;
62179;SDS011;48172;53.374;10.722;2022-11-20T01:34:19;2.20;;;1.77;;
62179;SDS011;48172;53.374;10.722;2022-11-20T01:36:46;1.92;;;1.60;;
62179;SDS011;48172;53.374;10.722;2022-11-20T01:39:14;1.55;;;1.45;;
62179;SDS011;48172;53.374;10.722;2022-11-20T01:41:43;1.52;;;1.42;;
62179;SDS011;48172;53.374;10.722;2022-11-20T01:52:38;1.58;;;1.40;;
62179;SDS011;48172;53.374;10.722;2022-11-20T01:55:09;1.92;;;1.45;;
62179;SDS011;48172;53.374;10.722;2022-11-20T01:57:43;2.22;;;1.65;;
62179;SDS011;48172;53.374;10.722;2022-11-20T02:00:12;2.15;;;1.60;;
62179;SDS011;48172;53.374;10.722;2022-11-20T02:02:43;1.88;;;1.50;;
62179;SDS011;48172;53.374;10.722;2022-11-20T02:05:32;2.00;;;1.40;;
62179;SDS011;48172;53.374;10.722;2022-11-20T02:08:03;1.95;;;1.50;;
62179;SDS011;48172;53.374;10.722;2022-11-20T02:10:31;1.77;;;1.42;;
62179;SDS011;48172;53.374;10.722;2022-11-20T02:12:58;1.70;;;1.60;;
62179;SDS011;48172;53.374;10.722;2022-11-20T02:15:44;1.88;;;1.60;;
62179;SDS011;48172;53.374;10.722;2022-11-20T02:18:11;2.88;;;2.15;;
62179;SDS011;48172;53.374;10.722;2022-11-20T02:20:40;1.50;;;1.40;;
62179;SDS011;48172;53.374;10.722;2022-11-20T02:23:15;1.75;;;1.50;;
62179;SDS011;48172;53.374;10.722;2022-11-20T02:25:47;1.70;;;1.60;;
62179;SDS011;48172;53.374;10.722;2022-11-20T02:28:14;1.50;;;1.40;;
62179;SDS011;48172;53.374;10.722;2022-11-20T02:30:41;2.28;;;1.75;;
62179;SDS011;48172;53.374;10.722;2022-11-20T02:33:07;1.60;;;1.38;;
62179;SDS011;48172;53.374;10.722;2022-11-20T02:38:01;1.85;;;1.42;;
62179;SDS011;48172;53.374;10.722;2022-11-20T02:40:28;1.63;;;1.50;;
62179;SDS011;48172;53.374;10.722;2022-11-20T02:42:55;1.50;;;1.40;;
62179;SDS011;48172;53.374;10.722;2022-11-20T02:45:23;1.85;;;1.48;;
62179;SDS011;48172;53.374;10.722;2022-11-20T02:47:50;1.70;;;1.58;;
62179;SDS011;48172;53.374;10.722;2022-11-20T02:50:17;1.70;;;1.33;;
62179;SDS011;48172;53.374;10.722;2022-11-20T02:52:44;1.80;;;1.40;;
62179;SDS011;48172;53.374;10.722;2022-11-20T02:55:10;2.92;;;1.45;;
62179;SDS011;48172;53.374;10.722;2022-11-20T02:57:37;1.40;;;1.30;;
62179;SDS011;48172;53.374;10.722;2022-11-20T03:00:04;2.03;;;1.58;;
62179;SDS011;48172;53.374;10.722;2022-11-20T03:02:31;1.92;;;1.60;;
62179;SDS011;48172;53.374;10.722;2022-11-20T03:04:57;1.58;;;1.40;;
62179;SDS011;48172;53.374;10.722;2022-11-20T03:07:24;2.38;;;1.60;;
62179;SDS011;48172;53.374;10.722;2022-11-20T03:09:51;1.48;;;1.35;;
62179;SDS011;48172;53.374;10.722;2022-11-20T03:12:17;1.75;;;1.48;;
62179;SDS011;48172;53.374;10.722;2022-11-20T03:14:44;1.88;;;1.60;;
62179;SDS011;48172;53.374;10.722;2022-11-20T03:17:17;1.45;;;1.35;;
62179;SDS011;48172;53.374;10.722;2022-11-20T03:19:44;1.80;;;1.50;;
62179;SDS011;48172;53.374;10.722;2022-11-20T03:22:10;2.22;;;1.77;;
62179;SDS011;48172;53.374;10.722;2022-11-20T03:24:37;1.92;;;1.42;;
62179;SDS011;48172;53.374;10.722;2022-11-20T03:27:03;1.92;;;1.60;;
62179;SDS011;48172;53.374;10.722;2022-11-20T03:29:30;2.10;;;1.65;;
62179;SDS011;48172;53.374;10.722;2022-11-20T03:31:57;2.40;;;1.73;;
62179;SDS011;48172;53.374;10.722;2022-11-20T03:34:23;1.70;;;1.40;;
62179;SDS011;48172;53.374;10.722;2022-11-20T03:36:49;1.63;;;1.52;;
62179;SDS011;48172;53.374;10.722;2022-11-20T03:39:16;1.63;;;1.52;;
62179;SDS011;48172;53.374;10.722;2022-11-20T03:41:43;1.20;;;1.10;;
62179;SDS011;48172;53.374;10.722;2022-11-20T03:44:10;1.52;;;1.42;;
62179;SDS011;48172;53.374;10.722;2022-11-20T03:46:38;1.50;;;1.38;;
62179;SDS011;48172;53.374;10.722;2022-11-20T03:49:05;1.40;;;1.25;;
62179;SDS011;48172;53.374;10.722;2022-11-20T03:51:32;2.47;;;1.50;;
62179;SDS011;48172;53.374;10.722;2022-11-20T03:54:02;1.45;;;1.30;;
62179;SDS011;48172;53.374;10.722;2022-11-20T03:56:32;1.40;;;1.30;;
62179;SDS011;48172;53.374;10.722;2022-11-20T03:59:01;1.77;;;1.52;;
62179;SDS011;48172;53.374;10.722;2022-11-20T04:01:29;1.52;;;1.38;;
62179;SDS011;48172;53.374;10.722;2022-11-20T04:03:58;1.92;;;1.63;;
62179;SDS011;48172;53.374;10.722;2022-11-20T04:06:35;1.90;;;1.60;;
62179;SDS011;48172;53.374;10.722;2022-11-20T04:09:03;1.80;;;1.40;;
62179;SDS011;48172;53.374;10.722;2022-11-20T04:11:31;1.60;;;1.50;;
62179;SDS011;48172;53.374;10.722;2022-11-20T04:14:00;1.88;;;1.60;;
62179;SDS011;48172;53.374;10.722;2022-11-20T04:16:29;2.05;;;1.85;;
62179;SDS011;48172;53.374;10.722;2022-11-20T04:18:58;1.55;;;1.45;;
62179;SDS011;48172;53.374;10.722;2022-11-20T04:21:26;1.40;;;1.30;;
62179;SDS011;48172;53.374;10.722;2022-11-20T04:23:53;1.75;;;1.55;;
62179;SDS011;48172;53.374;10.722;2022-11-20T04:26:21;1.63;;;1.52;;
62179;SDS011;48172;53.374;10.722;2022-11-20T04:28:49;1.83;;;1.45;;
62179;SDS011;48172;53.374;10.722;2022-11-20T04:31:17;2.08;;;1.60;;
62179;SDS011;48172;53.374;10.722;2022-11-20T04:33:44;1.55;;;1.30;;
62179;SDS011;48172;53.374;10.722;2022-11-20T04:36:12;1.77;;;1.50;;
62179;SDS011;48172;53.374;10.722;2022-11-20T04:38:41;1.75;;;1.50;;
62179;SDS011;48172;53.374;10.722;2022-11-20T04:41:10;1.52;;;1.40;;
62179;SDS011;48172;53.374;10.722;2022-11-20T04:43:40;1.38;;;1.27;;
62179;SDS011;48172;53.374;10.722;2022-11-20T04:46:07;1.60;;;1.50;;
62179;SDS011;48172;53.374;10.722;2022-11-20T04:48:34;1.55;;;1.27;;
62179;SDS011;48172;53.374;10.722;2022-11-20T04:51:04;1.40;;;1.30;;
62179;SDS011;48172;53.374;10.722;2022-11-20T04:53:31;1.73;;;1.38;;
62179;SDS011;48172;53.374;10.722;2022-11-20T04:56:01;1.70;;;1.50;;
62179;SDS011;48172;53.374;10.722;2022-11-20T04:58:29;1.50;;;1.38;;
62179;SDS011;48172;53.374;10.722;2022-11-20T05:01:06;1.58;;;1.40;;
62179;SDS011;48172;53.374;10.722;2022-11-20T05:03:35;1.40;;;1.30;;
62179;SDS011;48172;53.374;10.722;2022-11-20T05:06:07;1.75;;;1.38;;
62179;SDS011;48172;53.374;10.722;2022-11-20T05:08:35;1.60;;;1.27;;
62179;SDS011;48172;53.374;10.722;2022-11-20T05:11:11;1.42;;;1.33;;
62179;SDS011;48172;53.374;10.722;2022-11-20T05:13:40;1.52;;;1.42;;
62179;SDS011;48172;53.374;10.722;2022-11-20T05:18:37;1.58;;;1.48;;
62179;SDS011;48172;53.374;10.722;2022-11-20T05:21:05;1.60;;;1.40;;
62179;SDS011;48172;53.374;10.722;2022-11-20T05:23:33;2.05;;;1.30;;
62179;SDS011;48172;53.374;10.722;2022-11-20T05:26:00;1.77;;;1.50;;
62179;SDS011;48172;53.374;10.722;2022-11-20T05:28:27;1.65;;;1.40;;
62179;SDS011;48172;53.374;10.722;2022-11-20T05:30:55;1.40;;;1.30;;
62179;SDS011;48172;53.374;10.722;2022-11-20T05:33:22;1.30;;;1.20;;
62179;SDS011;48172;53.374;10.722;2022-11-20T05:35:50;2.22;;;1.48;;
62179;SDS011;48172;53.374;10.722;2022-11-20T05:38:16;1.65;;;1.52;;
62179;SDS011;48172;53.374;10.722;2022-11-20T05:40:43;1.52;;;1.30;;
62179;SDS011;48172;53.374;10.722;2022-11-20T05:43:09;1.95;;;1.30;;
62179;SDS011;48172;53.374;10.722;2022-11-20T05:45:36;1.30;;;1.20;;
62179;SDS011;48172;53.374;10.722;2022-11-20T05:48:02;1.40;;;1.30;;
62179;SDS011;48172;53.374;10.722;2022-11-20T05:50:29;1.98;;;1.50;;
62179;SDS011;48172;53.374;10.722;2022-11-20T05:52:59;1.95;;;1.52;;
62179;SDS011;48172;53.374;10.722;2022-11-20T05:55:26;1.60;;;1.40;;
62179;SDS011;48172;53.374;10.722;2022-11-20T05:57:54;1.33;;;1.20;;
62179;SDS011;48172;53.374;10.722;2022-11-20T06:00:21;1.63;;;1.17;;
62179;SDS011;48172;53.374;10.722;2022-11-20T06:02:47;1.58;;;1.48;;
62179;SDS011;48172;53.374;10.722;2022-11-20T06:05:14;1.27;;;1.17;;
62179;SDS011;48172;53.374;10.722;2022-11-20T06:07:40;1.52;;;1.33;;
62179;SDS011;48172;53.374;10.722;2022-11-20T06:10:07;1.48;;;1.02;;
62179;SDS011;48172;53.374;10.722;2022-11-20T06:12:34;1.42;;;1.20;;
62179;SDS011;48172;53.374;10.722;2022-11-20T06:15:01;1.52;;;1.40;;
62179;SDS011;48172;53.374;10.722;2022-11-20T06:17:27;1.20;;;1.10;;
62179;SDS011;48172;53.374;10.722;2022-11-20T06:19:54;1.77;;;1.38;;
62179;SDS011;48172;53.374;10.722;2022-11-20T06:22:20;1.30;;;1.20;;
62179;SDS011;48172;53.374;10.722;2022-11-20T06:24:47;1.65;;;1.45;;
62179;SDS011;48172;53.374;10.722;2022-11-20T06:27:13;1.20;;;0.90;;
62179;SDS011;48172;53.374;10.722;2022-11-20T06:29:40;1.65;;;1.40;;
62179;SDS011;48172;53.374;10.722;2022-11-20T06:32:06;1.40;;;1.20;;
62179;SDS011;48172;53.374;10.722;2022-11-20T06:34:33;1.40;;;1.23;;
62179;SDS011;48172;53.374;10.722;2022-11-20T06:36:59;1.20;;;1.10;;
62179;SDS011;48172;53.374;10.722;2022-11-20T06:39:26;2.25;;;1.10;;
62179;SDS011;48172;53.374;10.722;2022-11-20T06:41:52;1.25;;;1.00;;
62179;SDS011;48172;53.374;10.722;2022-11-20T06:44:24;1.13;;;1.02;;
62179;SDS011;48172;53.374;10.722;2022-11-20T06:46:50;1.33;;;1.10;;
62179;SDS011;48172;53.374;10.722;2022-11-20T06:49:17;1.23;;;1.15;;
62179;SDS011;48172;53.374;10.722;2022-11-20T06:51:43;1.48;;;1.20;;
62179;SDS011;48172;53.374;10.722;2022-11-20T06:54:10;1.20;;;1.10;;
62179;SDS011;48172;53.374;10.722;2022-11-20T06:56:36;1.20;;;1.10;;
62179;SDS011;48172;53.374;10.722;2022-11-20T06:59:06;0.93;;;0.88;;
62179;SDS011;48172;53.374;10.722;2022-11-20T07:01:33;1.20;;;1.10;;
62179;SDS011;48172;53.374;10.722;2022-11-20T07:04:00;1.50;;;1.40;;
62179;SDS011;48172;53.374;10.722;2022-11-20T07:06:26;1.30;;;1.17;;
62179;SDS011;48172;53.374;10.722;2022-11-20T07:08:52;1.60;;;1.20;;
62179;SDS011;48172;53.374;10.722;2022-11-20T07:11:19;1.65;;;1.27;;
62179;SDS011;48172;53.374;10.722;2022-11-20T07:13:46;1.67;;;1.20;;
62179;SDS011;48172;53.374;10.722;2022-11-20T07:16:12;1.10;;;1.00;;
62179;SDS011;48172;53.374;10.722;2022-11-20T07:18:39;1.10;;;1.00;;
62179;SDS011;48172;53.374;10.722;2022-11-20T07:21:11;1.40;;;1.30;;
62179;SDS011;48172;53.374;10.722;2022-11-20T07:23:37;1.20;;;1.10;;
62179;SDS011;48172;53.374;10.722;2022-11-20T07:26:08;1.20;;;1.10;;
62179;SDS011;48172;53.374;10.722;2022-11-20T07:28:36;1.30;;;1.10;;
62179;SDS011;48172;53.374;10.722;2022-11-20T07:31:03;2.25;;;1.10;;
62179;SDS011;48172;53.374;10.722;2022-11-20T07:33:31;1.02;;;1.02;;
62179;SDS011;48172;53.374;10.722;2022-11-20T07:36:00;1.10;;;1.00;;
62179;SDS011;48172;53.374;10.722;2022-11-20T07:38:27;1.17;;;1.00;;
62179;SDS011;48172;53.374;10.722;2022-11-20T07:40:54;1.25;;;1.00;;
62179;SDS011;48172;53.374;10.722;2022-11-20T07:43:22;1.23;;;1.00;;
62179;SDS011;48172;53.374;10.722;2022-11-20T07:45:50;1.52;;;1.08;;
62179;SDS011;48172;53.374;10.722;2022-11-20T07:48:16;1.20;;;1.10;;
62179;SDS011;48172;53.374;10.722;2022-11-20T07:50:43;1.08;;;0.95;;
62179;SDS011;48172;53.374;10.722;2022-11-20T07:53:09;1.52;;;1.10;;
62179;SDS011;48172;53.374;10.722;2022-11-20T07:55:36;1.20;;;1.10;;
62179;SDS011;48172;53.374;10.722;2022-11-20T07:58:02;1.10;;;1.00;;
62179;SDS011;48172;53.374;10.722;2022-11-20T08:00:29;1.50;;;1.20;;
62179;SDS011;48172;53.374;10.722;2022-11-20T08:02:56;1.42;;;1.15;;
62179;SDS011;48172;53.374;10.722;2022-11-20T08:05:22;1.40;;;1.30;;
62179;SDS011;48172;53.374;10.722;2022-11-20T08:07:49;1.15;;;1.05;;
62179;SDS011;48172;53.374;10.722;2022-11-20T08:10:15;1.40;;;1.30;;
62179;SDS011;48172;53.374;10.722;2022-11-20T08:12:46;1.73;;;1.10;;
62179;SDS011;48172;53.374;10.722;2022-11-20T08:15:35;1.17;;;1.08;;
62179;SDS011;48172;53.374;10.722;2022-11-20T08:18:03;1.33;;;1.23;;
62179;SDS011;48172;53.374;10.722;2022-11-20T08:20:52;1.48;;;1.20;;
62179;SDS011;48172;53.374;10.722;2022-11-20T08:23:18;2.10;;;1.30;;
62179;SDS011;48172;53.374;10.722;2022-11-20T08:25:48;1.35;;;1.02;;
62179;SDS011;48172;53.374;10.722;2022-11-20T08:28:15;1.85;;;1.20;;
62179;SDS011;48172;53.374;10.722;2022-11-20T08:30:47;1.30;;;1.20;;
62179;SDS011;48172;53.374;10.722;2022-11-20T08:33:14;1.27;;;1.17;;
62179;SDS011;48172;53.374;10.722;2022-11-20T08:35:40;2.45;;;1.50;;
62179;SDS011;48172;53.374;10.722;2022-11-20T08:38:08;2.38;;;1.30;;
62179;SDS011;48172;53.374;10.722;2022-11-20T08:40:35;1.23;;;1.13;;
62179;SDS011;48172;53.374;10.722;2022-11-20T08:43:01;1.77;;;1.20;;
62179;SDS011;48172;53.374;10.722;2022-11-20T08:45:28;1.50;;;1.40;;
62179;SDS011;48172;53.374;10.722;2022-11-20T08:48:00;1.50;;;1.25;;
62179;SDS011;48172;53.374;10.722;2022-11-20T08:50:27;1.27;;;1.17;;
62179;SDS011;48172;53.374;10.722;2022-11-20T08:52:54;1.45;;;1.35;;
62179;SDS011;48172;53.374;10.722;2022-11-20T08:55:21;1.30;;;1.20;;
62179;SDS011;48172;53.374;10.722;2022-11-20T08:57:47;1.20;;;1.10;;
62179;SDS011;48172;53.374;10.722;2022-11-20T09:00:16;1.88;;;1.33;;
62179;SDS011;48172;53.374;10.722;2022-11-20T09:02:43;0.93;;;0.93;;
62179;SDS011;48172;53.374;10.722;2022-11-20T09:05:09;1.80;;;1.25;;
62179;SDS011;48172;53.374;10.722;2022-11-20T09:07:36;0.90;;;0.90;;
62179;SDS011;48172;53.374;10.722;2022-11-20T09:10:03;1.70;;;1.38;;
62179;SDS011;48172;53.374;10.722;2022-11-20T09:12:49;1.38;;;1.27;;
62179;SDS011;48172;53.374;10.722;2022-11-20T09:15:17;1.90;;;1.30;;
62179;SDS011;48172;53.374;10.722;2022-11-20T09:17:51;0.93;;;0.93;;
62179;SDS011;48172;53.374;10.722;2022-11-20T09:20:19;1.80;;;1.40;;
62179;SDS011;48172;53.374;10.722;2022-11-20T09:22:45;1.20;;;1.10;;
62179;SDS011;48172;53.374;10.722;2022-11-20T09:25:12;1.20;;;1.10;;
62179;SDS011;48172;53.374;10.722;2022-11-20T09:27:39;1.48;;;1.30;;
62179;SDS011;48172;53.374;10.722;2022-11-20T09:30:07;1.75;;;1.30;;
62179;SDS011;48172;53.374;10.722;2022-11-20T09:32:34;1.42;;;1.33;;
62179;SDS011;48172;53.374;10.722;2022-11-20T09:35:01;1.35;;;1.20;;
62179;SDS011;48172;53.374;10.722;2022-11-20T09:37:28;1.55;;;1.40;;
62179;SDS011;48172;53.374;10.722;2022-11-20T09:39:55;1.38;;;1.20;;
62179;SDS011;48172;53.374;10.722;2022-11-20T09:56:23;1.30;;;1.20;;
62179;SDS011;48172;53.374;10.722;2022-11-20T09:58:51;1.77;;;1.33;;
62179;SDS011;48172;53.374;10.722;2022-11-20T10:01:25;1.45;;;1.35;;
62179;SDS011;48172;53.374;10.722;2022-11-20T10:04:00;1.55;;;1.45;;
62179;SDS011;48172;53.374;10.722;2022-11-20T10:06:31;2.15;;;1.33;;
62179;SDS011;48172;53.374;10.722;2022-11-20T10:09:14;1.88;;;1.30;;
62179;SDS011;48172;53.374;10.722;2022-11-20T10:14:24;1.30;;;1.20;;
62179;SDS011;48172;53.374;10.722;2022-11-20T10:19:45;1.52;;;1.42;;
62179;SDS011;48172;53.374;10.722;2022-11-20T10:30:57;1.50;;;1.40;;
62179;SDS011;48172;53.374;10.722;2022-11-20T10:33:33;1.33;;;1.23;;
62179;SDS011;48172;53.374;10.722;2022-11-20T10:36:26;1.30;;;1.20;;
62179;SDS011;48172;53.374;10.722;2022-11-20T10:38:57;1.40;;;1.30;;
62179;SDS011;48172;53.374;10.722;2022-11-20T10:41:30;1.35;;;1.15;;
62179;SDS011;48172;53.374;10.722;2022-11-20T10:47:03;1.33;;;1.20;;
62179;SDS011;48172;53.374;10.722;2022-11-20T10:49:32;1.50;;;1.40;;
62179;SDS011;48172;53.374;10.722;2022-11-20T10:57:31;1.33;;;1.23;;
62179;SDS011;48172;53.374;10.722;2022-11-20T11:00:18;1.80;;;1.60;;
62179;SDS011;48172;53.374;10.722;2022-11-20T11:02:52;2.22;;;1.30;;
62179;SDS011;48172;53.374;10.722;2022-11-20T11:08:26;1.60;;;1.50;;
62179;SDS011;48172;53.374;10.722;2022-11-20T11:10:59;2.03;;;1.50;;
62179;SDS011;48172;53.374;10.722;2022-11-20T11:13:29;1.63;;;1.52;;
62179;SDS011;48172;53.374;10.722;2022-11-20T11:15:56;1.67;;;1.58;;
62179;SDS011;48172;53.374;10.722;2022-11-20T11:21:01;1.42;;;1.25;;
62179;SDS011;48172;53.374;10.722;2022-11-20T11:26:28;1.45;;;1.35;;
62179;SDS011;48172;53.374;10.722;2022-11-20T11:31:43;1.48;;;1.38;;
62179;SDS011;48172;53.374;10.722;2022-11-20T11:34:13;1.33;;;1.23;;
62179;SDS011;48172;53.374;10.722;2022-11-20T11:36:41;2.00;;;1.55;;
62179;SDS011;48172;53.374;10.722;2022-11-20T11:39:12;1.75;;;1.40;;
62179;SDS011;48172;53.374;10.722;2022-11-20T11:41:42;1.90;;;1.42;;
62179;SDS011;48172;53.374;10.722;2022-11-20T11:44:19;1.50;;;1.30;;
62179;SDS011;48172;53.374;10.722;2022-11-20T11:47:11;1.40;;;1.30;;
62179;SDS011;48172;53.374;10.722;2022-11-20T11:49:45;1.40;;;1.30;;
62179;SDS011;48172;53.374;10.722;2022-11-20T11:52:13;1.50;;;1.35;;
62179;SDS011;48172;53.374;10.722;2022-11-20T11:54:56;1.45;;;1.35;;
62179;SDS011;48172;53.374;10.722;2022-11-20T11:57:29;1.23;;;1.13;;
62179;SDS011;48172;53.374;10.722;2022-11-20T12:00:12;1.40;;;1.30;;
62179;SDS011;48172;53.374;10.722;2022-11-20T12:08:23;1.45;;;1.33;;
62179;SDS011;48172;53.374;10.722;2022-11-20T12:16:24;1.48;;;1.30;;
62179;SDS011;48172;53.374;10.722;2022-11-20T12:18:51;1.40;;;1.30;;
62179;SDS011;48172;53.374;10.722;2022-11-20T12:21:19;2.00;;;1.48;;
62179;SDS011;48172;53.374;10.722;2022-11-20T12:29:50;1.30;;;1.10;;
62179;SDS011;48172;53.374;10.722;2022-11-20T12:44:08;1.85;;;1.40;;
62179;SDS011;48172;53.374;10.722;2022-11-20T12:50:01;1.20;;;1.10;;
62179;SDS011;48172;53.374;10.722;2022-11-20T12:52:48;1.40;;;1.30;;
62179;SDS011;48172;53.374;10.722;2022-11-20T12:55:28;1.27;;;1.15;;
62179;SDS011;48172;53.374;10.722;2022-11-20T12:58:10;1.88;;;1.10;;
62179;SDS011;48172;53.374;10.722;2022-11-20T13:06:39;1.20;;;1.10;;
62179;SDS011;48172;53.374;10.722;2022-11-20T13:09:14;1.55;;;1.20;;
62179;SDS011;48172;53.374;10.722;2022-11-20T13:20:18;1.73;;;1.23;;
62179;SDS011;48172;53.374;10.722;2022-11-20T13:22:47;0.98;;;0.90;;
62179;SDS011;48172;53.374;10.722;2022-11-20T13:25:22;1.30;;;1.20;;
62179;SDS011;48172;53.374;10.722;2022-11-20T13:28:00;1.30;;;1.20;;
62179;SDS011;48172;53.374;10.722;2022-11-20T13:30:29;1.17;;;1.08;;
62179;SDS011;48172;53.374;10.722;2022-11-20T13:35:40;1.48;;;0.93;;
62179;SDS011;48172;53.374;10.722;2022-11-20T13:38:17;1.40;;;1.20;;
62179;SDS011;48172;53.374;10.722;2022-11-20T13:40:54;1.17;;;1.08;;
62179;SDS011;48172;53.374;10.722;2022-11-20T13:46:02;0.90;;;0.82;;
62179;SDS011;48172;53.374;10.722;2022-11-20T13:48:32;0.80;;;0.80;;
62179;SDS011;48172;53.374;10.722;2022-11-20T13:54:05;1.20;;;1.10;;
62179;SDS011;48172;53.374;10.722;2022-11-20T14:02:19;1.30;;;1.17;;
62179;SDS011;48172;53.374;10.722;2022-11-20T14:04:49;1.20;;;1.10;;
62179;SDS011;48172;53.374;10.722;2022-11-20T14:07:18;1.73;;;1.20;;
62179;SDS011;48172;53.374;10.722;2022-11-20T14:09:54;1.45;;;1.35;;
62179;SDS011;48172;53.374;10.722;2022-11-20T14:12:23;1.58;;;1.33;;
62179;SDS011;48172;53.374;10.722;2022-11-20T14:14:54;1.85;;;1.02;;
62179;SDS011;48172;53.374;10.722;2022-11-20T14:19:49;1.25;;;1.10;;
62179;SDS011;48172;53.374;10.722;2022-11-20T14:22:20;1.20;;;1.10;;
62179;SDS011;48172;53.374;10.722;2022-11-20T14:24:47;1.02;;;0.93;;
62179;SDS011;48172;53.374;10.722;2022-11-20T14:27:18;1.20;;;1.10;;
62179;SDS011;48172;53.374;10.722;2022-11-20T14:29:47;1.50;;;1.10;;
62179;SDS011;48172;53.374;10.722;2022-11-20T14:32:19;1.63;;;1.00;;
62179;SDS011;48172;53.374;10.722;2022-11-20T14:34:49;1.38;;;1.10;;
62179;SDS011;48172;53.374;10.722;2022-11-20T14:37:18;1.10;;;1.00;;
62179;SDS011;48172;53.374;10.722;2022-11-20T14:39:51;2.58;;;1.23;;
62179;SDS011;48172;53.374;10.722;2022-11-20T14:42:24;1.17;;;1.07;;
62179;SDS011;48172;53.374;10.722;2022-11-20T14:44:54;1.38;;;1.17;;
62179;SDS011;48172;53.374;10.722;2022-11-20T14:47:23;2.00;;;1.20;;
62179;SDS011;48172;53.374;10.722;2022-11-20T14:49:55;2.25;;;1.10;;
62179;SDS011;48172;53.374;10.722;2022-11-20T14:52:24;1.15;;;1.05;;
62179;SDS011;48172;53.374;10.722;2022-11-20T14:57:26;1.88;;;1.00;;
62179;SDS011;48172;53.374;10.722;2022-11-20T15:00:05;1.42;;;1.30;;
62179;SDS011;48172;53.374;10.722;2022-11-20T15:02:41;1.30;;;1.20;;
62179;SDS011;48172;53.374;10.722;2022-11-20T15:05:09;1.65;;;1.40;;
62179;SDS011;48172;53.374;10.722;2022-11-20T15:07:37;1.30;;;1.15;;
62179;SDS011;48172;53.374;10.722;2022-11-20T15:12:54;1.67;;;1.20;;
62179;SDS011;48172;53.374;10.722;2022-11-20T15:15:30;1.48;;;1.25;;
62179;SDS011;48172;53.374;10.722;2022-11-20T15:18:01;2.33;;;1.42;;
62179;SDS011;48172;53.374;10.722;2022-11-20T15:20:30;1.50;;;1.10;;
62179;SDS011;48172;53.374;10.722;2022-11-20T15:22:58;1.52;;;1.20;;
62179;SDS011;48172;53.374;10.722;2022-11-20T15:25:25;1.65;;;1.50;;
62179;SDS011;48172;53.374;10.722;2022-11-20T15:27:52;1.10;;;1.00;;
62179;SDS011;48172;53.374;10.722;2022-11-20T15:30:23;1.77;;;1.38;;
62179;SDS011;48172;53.374;10.722;2022-11-20T15:32:50;2.60;;;1.20;;
62179;SDS011;48172;53.374;10.722;2022-11-20T15:35:16;2.35;;;1.40;;
62179;SDS011;48172;53.374;10.722;2022-11-20T15:37:43;1.50;;;1.40;;
62179;SDS011;48172;53.374;10.722;2022-11-20T15:40:09;1.50;;;1.40;;
62179;SDS011;48172;53.374;10.722;2022-11-20T15:42:36;1.90;;;1.52;;
62179;SDS011;48172;53.374;10.722;2022-11-20T15:45:03;1.50;;;1.40;;
62179;SDS011;48172;53.374;10.722;2022-11-20T15:47:31;3.33;;;1.50;;
62179;SDS011;48172;53.374;10.722;2022-11-20T15:49:59;1.63;;;1.40;;
62179;SDS011;48172;53.374;10.722;2022-11-20T15:52:26;1.45;;;1.33;;
62179;SDS011;48172;53.374;10.722;2022-11-20T15:55:01;1.60;;;1.45;;
62179;SDS011;48172;53.374;10.722;2022-11-20T15:57:34;2.47;;;1.70;;
62179;SDS011;48172;53.374;10.722;2022-11-20T16:00:01;1.40;;;1.30;;
62179;SDS011;48172;53.374;10.722;2022-11-20T16:02:28;1.63;;;1.42;;
62179;SDS011;48172;53.374;10.722;2022-11-20T16:04:55;1.85;;;1.63;;
62179;SDS011;48172;53.374;10.722;2022-11-20T16:07:21;1.67;;;1.40;;
62179;SDS011;48172;53.374;10.722;2022-11-20T16:09:48;1.70;;;1.60;;
62179;SDS011;48172;53.374;10.722;2022-11-20T16:12:14;1.58;;;1.40;;
62179;SDS011;48172;53.374;10.722;2022-11-20T16:15:01;1.70;;;1.40;;
62179;SDS011;48172;53.374;10.722;2022-11-20T16:17:46;2.08;;;1.65;;
62179;SDS011;48172;53.374;10.722;2022-11-20T16:20:13;1.50;;;1.20;;
62179;SDS011;48172;53.374;10.722;2022-11-20T16:22:39;2.03;;;1.60;;
62179;SDS011;48172;53.374;10.722;2022-11-20T16:25:06;1.60;;;1.45;;
62179;SDS011;48172;53.374;10.722;2022-11-20T16:27:34;1.75;;;1.63;;
62179;SDS011;48172;53.374;10.722;2022-11-20T16:30:03;1.65;;;1.35;;
62179;SDS011;48172;53.374;10.722;2022-11-20T16:32:30;2.13;;;1.70;;
62179;SDS011;48172;53.374;10.722;2022-11-20T16:34:57;2.17;;;1.50;;
62179;SDS011;48172;53.374;10.722;2022-11-20T16:37:23;1.88;;;1.40;;
62179;SDS011;48172;53.374;10.722;2022-11-20T16:39:50;1.20;;;1.10;;
62179;SDS011;48172;53.374;10.722;2022-11-20T16:42:17;1.50;;;1.40;;
62179;SDS011;48172;53.374;10.722;2022-11-20T16:44:45;1.83;;;1.33;;
62179;SDS011;48172;53.374;10.722;2022-11-20T16:47:12;1.77;;;1.23;;
62179;SDS011;48172;53.374;10.722;2022-11-20T16:49:38;1.30;;;1.20;;
62179;SDS011;48172;53.374;10.722;2022-11-20T16:52:05;1.48;;;1.35;;
62179;SDS011;48172;53.374;10.722;2022-11-20T16:54:31;1.80;;;1.35;;